sensor_id;sensor_type;location;lat;lon;timestamp;P1;P4;P2;P0;N10;N4;N25;N1;N05;TS
71906;SPS30;59781;52.090;5.030;2024-01-16T00:01:45;2.18;2.09;1.67;1.09;8.80;8.78;8.69;8.12;6.10;0.86
71906;SPS30;59781;52.090;5.030;2024-01-16T00:04:11;1.79;1.72;1.38;0.92;7.38;7.37;7.29;6.83;5.17;0.84
71906;SPS30;59781;52.090;5.030;2024-01-16T00:06:40;2.07;1.99;1.61;1.07;8.58;8.56;8.47;7.94;6.01;0.85
71906;SPS30;59781;52.090;5.030;2024-01-16T00:09:06;1.73;1.67;1.35;0.91;7.31;7.29;7.22;6.79;5.16;0.84
71906;SPS30;59781;52.090;5.030;2024-01-16T00:11:33;1.54;1.48;1.20;0.80;6.43;6.42;6.36;5.97;4.53;0.85
71906;SPS30;59781;52.090;5.030;2024-01-16T00:13:58;1.80;1.73;1.40;0.93;7.52;7.50;7.43;6.97;5.29;0.85
71906;SPS30;59781;52.090;5.030;2024-01-16T00:16:24;1.61;1.55;1.25;0.83;6.67;6.66;6.60;6.18;4.68;0.84
71906;SPS30;59781;52.090;5.030;2024-01-16T00:18:50;1.75;1.69;1.37;0.93;7.45;7.43;7.36;6.93;5.29;0.82
71906;SPS30;59781;52.090;5.030;2024-01-16T00:21:15;1.96;1.89;1.53;1.03;8.25;8.24;8.16;7.66;5.83;0.82
71906;SPS30;59781;52.090;5.030;2024-01-16T00:23:41;1.76;1.69;1.37;0.91;7.31;7.30;7.23;6.78;5.14;0.82
71906;SPS30;59781;52.090;5.030;2024-01-16T00:26:07;1.81;1.74;1.39;0.91;7.29;7.28;7.20;6.72;5.05;0.83
71906;SPS30;59781;52.090;5.030;2024-01-16T00:28:32;1.80;1.73;1.38;0.90;7.23;7.21;7.14;6.66;4.99;0.83
71906;SPS30;59781;52.090;5.030;2024-01-16T00:30:58;2.06;1.98;1.57;1.01;8.15;8.14;8.05;7.49;5.59;0.83
71906;SPS30;59781;52.090;5.030;2024-01-16T00:33:23;2.56;2.46;1.93;1.21;9.78;9.76;9.65;8.94;6.60;0.85
71906;SPS30;59781;52.090;5.030;2024-01-16T00:35:49;1.91;1.83;1.45;0.92;7.40;7.38;7.30;6.78;5.03;0.84
71906;SPS30;59781;52.090;5.030;2024-01-16T00:38:15;2.21;2.12;1.67;1.05;8.46;8.44;8.34;7.73;5.72;0.85
71906;SPS30;59781;52.090;5.030;2024-01-16T00:40:40;2.20;2.11;1.66;1.05;8.44;8.42;8.32;7.71;5.71;0.86
71906;SPS30;59781;52.090;5.030;2024-01-16T00:43:06;1.85;1.78;1.41;0.90;7.25;7.24;7.16;6.65;4.96;0.86
71906;SPS30;59781;52.090;5.030;2024-01-16T00:45:32;1.99;1.91;1.51;0.95;7.69;7.67;7.58;7.04;5.22;0.87
71906;SPS30;59781;52.090;5.030;2024-01-16T00:47:58;2.29;2.20;1.74;1.10;8.89;8.87;8.77;8.14;6.04;0.87
71906;SPS30;59781;52.090;5.030;2024-01-16T00:50:23;1.90;1.82;1.43;0.91;7.30;7.29;7.20;6.68;4.95;0.87
71906;SPS30;59781;52.090;5.030;2024-01-16T00:52:49;2.15;2.06;1.62;1.02;8.21;8.19;8.09;7.50;5.54;0.86
71906;SPS30;59781;52.090;5.030;2024-01-16T00:55:15;1.94;1.86;1.46;0.92;7.39;7.38;7.29;6.75;4.98;0.87
71906;SPS30;59781;52.090;5.030;2024-01-16T00:57:41;2.70;2.59;2.02;1.26;10.14;10.12;10.00;9.24;6.79;0.87
71906;SPS30;59781;52.090;5.030;2024-01-16T01:00:07;2.91;2.78;2.17;1.33;10.73;10.70;10.57;9.74;7.11;0.88
71906;SPS30;59781;52.090;5.030;2024-01-16T01:02:35;2.60;2.49;1.95;1.21;9.72;9.70;9.58;8.85;6.49;0.87
71906;SPS30;59781;52.090;5.030;2024-01-16T01:05:00;2.44;2.34;1.85;1.17;9.39;9.37;9.26;8.58;6.35;0.86
71906;SPS30;59781;52.090;5.030;2024-01-16T01:07:26;2.38;2.28;1.79;1.12;9.00;8.99;8.88;8.21;6.04;0.87
71906;SPS30;59781;52.090;5.030;2024-01-16T01:09:52;2.27;2.18;1.71;1.07;8.64;8.63;8.52;7.89;5.82;0.86
71906;SPS30;59781;52.090;5.030;2024-01-16T01:12:17;2.31;2.22;1.75;1.11;8.91;8.89;8.79;8.16;6.04;0.86
71906;SPS30;59781;52.090;5.030;2024-01-16T01:14:43;2.22;2.13;1.69;1.07;8.66;8.64;8.54;7.94;5.90;0.86
71906;SPS30;59781;52.090;5.030;2024-01-16T01:17:09;2.66;2.56;2.04;1.32;10.63;10.61;10.49;9.78;7.33;0.84
71906;SPS30;59781;52.090;5.030;2024-01-16T01:19:35;2.26;2.18;1.75;1.16;9.34;9.32;9.23;8.65;6.54;0.83
71906;SPS30;59781;52.090;5.030;2024-01-16T01:22:00;2.45;2.35;1.90;1.26;10.11;10.09;9.99;9.36;7.08;0.82
71906;SPS30;59781;52.090;5.030;2024-01-16T01:24:26;2.36;2.28;1.85;1.26;10.14;10.12;10.03;9.45;7.22;0.81
71906;SPS30;59781;52.090;5.030;2024-01-16T01:26:52;1.92;1.86;1.51;1.03;8.32;8.30;8.23;7.76;5.94;0.81
71906;SPS30;59781;52.090;5.030;2024-01-16T01:29:18;1.57;1.52;1.24;0.86;6.89;6.88;6.82;6.44;4.96;0.80
71906;SPS30;59781;52.090;5.030;2024-01-16T01:31:46;1.91;1.84;1.49;0.99;8.00;7.98;7.91;7.42;5.63;0.82
71906;SPS30;59781;52.090;5.030;2024-01-16T01:34:15;2.17;2.09;1.68;1.10;8.89;8.87;8.78;8.22;6.20;0.82
71906;SPS30;59781;52.090;5.030;2024-01-16T01:36:40;2.03;1.95;1.54;0.97;7.83;7.81;7.72;7.17;5.31;0.85
71906;SPS30;59781;52.090;5.030;2024-01-16T01:39:06;2.18;2.09;1.63;1.01;8.15;8.13;8.03;7.41;5.44;0.86
71906;SPS30;59781;52.090;5.030;2024-01-16T01:41:32;1.79;1.72;1.34;0.82;6.60;6.58;6.50;5.99;4.37;0.87
71906;SPS30;59781;52.090;5.030;2024-01-16T01:43:58;1.38;1.32;1.02;0.62;5.03;5.01;4.95;4.55;3.31;0.87
71906;SPS30;59781;52.090;5.030;2024-01-16T01:46:23;1.56;1.49;1.15;0.70;5.61;5.60;5.53;5.07;3.67;0.87
71906;SPS30;59781;52.090;5.030;2024-01-16T01:48:49;1.39;1.33;1.02;0.61;4.90;4.89;4.82;4.41;3.17;0.89
71906;SPS30;59781;52.090;5.030;2024-01-16T01:51:17;1.81;1.73;1.33;0.78;6.31;6.29;6.20;5.66;4.05;0.90
71906;SPS30;59781;52.090;5.030;2024-01-16T01:53:44;1.35;1.29;0.99;0.59;4.73;4.72;4.66;4.25;3.05;0.90
71906;SPS30;59781;52.090;5.030;2024-01-16T01:56:15;1.12;1.07;0.82;0.48;3.91;3.90;3.84;3.51;2.52;0.90
71906;SPS30;59781;52.090;5.030;2024-01-16T01:58:45;0.98;0.93;0.71;0.42;3.35;3.35;3.30;3.00;2.14;0.92
71906;SPS30;59781;52.090;5.030;2024-01-16T02:01:14;1.03;0.98;0.75;0.43;3.51;3.50;3.45;3.13;2.22;0.93
71906;SPS30;59781;52.090;5.030;2024-01-16T02:03:45;0.59;0.56;0.42;0.24;1.96;1.96;1.93;1.75;1.23;0.93
71906;SPS30;59781;52.090;5.030;2024-01-16T02:06:12;0.75;0.71;0.54;0.30;2.46;2.45;2.42;2.18;1.52;0.94
71906;SPS30;59781;52.090;5.030;2024-01-16T02:08:40;0.66;0.63;0.47;0.27;2.16;2.15;2.12;1.91;1.33;0.94
71906;SPS30;59781;52.090;5.030;2024-01-16T02:11:06;0.80;0.76;0.57;0.32;2.60;2.59;2.55;2.30;1.59;0.95
71906;SPS30;59781;52.090;5.030;2024-01-16T02:13:32;1.28;1.22;0.92;0.51;4.14;4.13;4.06;3.66;2.54;0.95
71906;SPS30;59781;52.090;5.030;2024-01-16T02:15:57;1.17;1.11;0.84;0.47;3.81;3.80;3.74;3.38;2.35;0.96
71906;SPS30;59781;52.090;5.030;2024-01-16T02:18:23;0.67;0.64;0.48;0.27;2.20;2.20;2.16;1.95;1.36;0.96
71906;SPS30;59781;52.090;5.030;2024-01-16T02:20:49;0.88;0.84;0.64;0.36;2.90;2.89;2.85;2.57;1.79;0.96
71906;SPS30;59781;52.090;5.030;2024-01-16T02:23:15;0.65;0.62;0.47;0.26;2.14;2.13;2.10;1.90;1.33;0.95
71906;SPS30;59781;52.090;5.030;2024-01-16T02:25:53;0.97;0.92;0.70;0.40;3.23;3.22;3.17;2.87;2.02;0.95
71906;SPS30;59781;52.090;5.030;2024-01-16T02:28:20;0.83;0.79;0.60;0.35;2.80;2.79;2.75;2.50;1.76;0.94
71906;SPS30;59781;52.090;5.030;2024-01-16T02:30:45;0.73;0.69;0.53;0.30;2.46;2.46;2.42;2.20;1.56;0.94
71906;SPS30;59781;52.090;5.030;2024-01-16T02:33:11;0.85;0.81;0.62;0.36;2.91;2.90;2.86;2.60;1.85;0.93
71906;SPS30;59781;52.090;5.030;2024-01-16T02:35:37;0.58;0.55;0.42;0.24;1.95;1.95;1.92;1.74;1.23;0.93
71906;SPS30;59781;52.090;5.030;2024-01-16T02:38:04;0.61;0.58;0.44;0.26;2.06;2.06;2.03;1.84;1.30;0.93
71906;SPS30;59781;52.090;5.030;2024-01-16T02:40:30;0.81;0.78;0.59;0.35;2.80;2.79;2.75;2.51;1.78;0.92
71906;SPS30;59781;52.090;5.030;2024-01-16T02:42:55;0.92;0.88;0.68;0.41;3.29;3.28;3.24;2.97;2.14;0.90
71906;SPS30;59781;52.090;5.030;2024-01-16T02:45:21;0.90;0.86;0.67;0.41;3.31;3.30;3.26;3.00;2.19;0.89
71906;SPS30;59781;52.090;5.030;2024-01-16T02:47:47;0.81;0.78;0.60;0.37;3.01;3.00;2.96;2.73;2.00;0.88
71906;SPS30;59781;52.090;5.030;2024-01-16T02:50:13;0.95;0.91;0.72;0.45;3.65;3.64;3.60;3.33;2.46;0.87
71906;SPS30;59781;52.090;5.030;2024-01-16T02:52:39;1.01;0.96;0.75;0.47;3.77;3.76;3.72;3.43;2.52;0.88
71906;SPS30;59781;52.090;5.030;2024-01-16T02:55:05;1.07;1.02;0.80;0.49;3.98;3.97;3.92;3.62;2.66;0.89
71906;SPS30;59781;52.090;5.030;2024-01-16T02:57:32;0.80;0.77;0.60;0.36;2.91;2.90;2.87;2.63;1.91;0.90
71906;SPS30;59781;52.090;5.030;2024-01-16T02:59:57;1.02;0.98;0.76;0.46;3.75;3.74;3.69;3.40;2.47;0.89
71906;SPS30;59781;52.090;5.030;2024-01-16T03:02:23;0.88;0.84;0.65;0.40;3.21;3.21;3.17;2.92;2.12;0.89
71906;SPS30;59781;52.090;5.030;2024-01-16T03:04:49;0.89;0.85;0.66;0.40;3.26;3.26;3.22;2.96;2.16;0.89
71906;SPS30;59781;52.090;5.030;2024-01-16T03:07:15;0.91;0.87;0.68;0.42;3.36;3.35;3.31;3.05;2.23;0.90
71906;SPS30;59781;52.090;5.030;2024-01-16T03:09:41;1.41;1.35;1.04;0.63;5.10;5.09;5.02;4.61;3.35;0.91
71906;SPS30;59781;52.090;5.030;2024-01-16T03:12:07;0.98;0.94;0.73;0.44;3.57;3.57;3.52;3.24;2.36;0.90
71906;SPS30;59781;52.090;5.030;2024-01-16T03:14:32;0.68;0.65;0.51;0.32;2.56;2.55;2.52;2.33;1.71;0.88
71906;SPS30;59781;52.090;5.030;2024-01-16T03:17:02;1.13;1.09;0.86;0.54;4.34;4.33;4.28;3.96;2.93;0.87
71906;SPS30;59781;52.090;5.030;2024-01-16T03:19:28;0.82;0.78;0.62;0.39;3.16;3.15;3.12;2.89;2.15;0.85
71906;SPS30;59781;52.090;5.030;2024-01-16T03:21:54;1.27;1.22;0.96;0.60;4.84;4.83;4.77;4.42;3.26;0.86
71906;SPS30;59781;52.090;5.030;2024-01-16T03:24:20;1.02;0.97;0.77;0.48;3.90;3.89;3.85;3.57;2.64;0.86
71906;SPS30;59781;52.090;5.030;2024-01-16T03:26:46;1.29;1.23;0.97;0.62;4.98;4.96;4.91;4.56;3.38;0.86
71906;SPS30;59781;52.090;5.030;2024-01-16T03:29:12;1.22;1.17;0.93;0.60;4.82;4.81;4.76;4.43;3.31;0.85
71906;SPS30;59781;52.090;5.030;2024-01-16T03:31:37;1.53;1.47;1.17;0.75;6.05;6.04;5.98;5.57;4.16;0.85
71906;SPS30;59781;52.090;5.030;2024-01-16T03:34:03;1.39;1.33;1.07;0.70;5.66;5.65;5.59;5.23;3.94;0.83
71906;SPS30;59781;52.090;5.030;2024-01-16T03:36:29;1.77;1.70;1.36;0.88;7.08;7.07;7.00;6.53;4.89;0.84
71906;SPS30;59781;52.090;5.030;2024-01-16T03:38:54;1.63;1.57;1.25;0.82;6.59;6.58;6.51;6.08;4.57;0.84
71906;SPS30;59781;52.090;5.030;2024-01-16T03:41:20;1.41;1.36;1.08;0.70;5.65;5.64;5.58;5.20;3.90;0.84
71906;SPS30;59781;52.090;5.030;2024-01-16T03:43:46;1.68;1.61;1.27;0.82;6.57;6.56;6.48;6.03;4.49;0.85
71906;SPS30;59781;52.090;5.030;2024-01-16T03:46:12;1.86;1.78;1.41;0.90;7.22;7.21;7.13;6.62;4.92;0.86
71906;SPS30;59781;52.090;5.030;2024-01-16T03:48:38;1.48;1.42;1.12;0.71;5.70;5.69;5.63;5.22;3.87;0.87
71906;SPS30;59781;52.090;5.030;2024-01-16T03:51:04;1.49;1.43;1.12;0.71;5.68;5.67;5.61;5.19;3.84;0.88
71906;SPS30;59781;52.090;5.030;2024-01-16T03:53:31;1.90;1.82;1.42;0.88;7.08;7.07;6.98;6.44;4.72;0.89
71906;SPS30;59781;52.090;5.030;2024-01-16T03:55:57;1.25;1.19;0.94;0.59;4.72;4.71;4.65;4.31;3.17;0.87
71906;SPS30;59781;52.090;5.030;2024-01-16T03:58:23;1.73;1.66;1.31;0.83;6.72;6.71;6.63;6.16;4.58;0.86
71906;SPS30;59781;52.090;5.030;2024-01-16T04:00:49;2.13;2.05;1.65;1.09;8.73;8.72;8.63;8.07;6.09;0.83
71906;SPS30;59781;52.090;5.030;2024-01-16T04:03:16;1.45;1.40;1.13;0.76;6.11;6.10;6.04;5.68;4.31;0.82
71906;SPS30;59781;52.090;5.030;2024-01-16T04:05:42;1.78;1.71;1.38;0.92;7.40;7.38;7.31;6.86;5.20;0.83
71906;SPS30;59781;52.090;5.030;2024-01-16T04:08:08;1.47;1.41;1.13;0.75;6.01;6.00;5.94;5.56;4.19;0.83
71906;SPS30;59781;52.090;5.030;2024-01-16T04:10:34;1.63;1.56;1.25;0.82;6.63;6.62;6.55;6.13;4.62;0.83
71906;SPS30;59781;52.090;5.030;2024-01-16T04:13:00;1.48;1.43;1.15;0.76;6.11;6.10;6.04;5.66;4.28;0.84
71906;SPS30;59781;52.090;5.030;2024-01-16T04:15:27;1.30;1.25;1.01;0.67;5.38;5.37;5.31;4.98;3.77;0.83
71906;SPS30;59781;52.090;5.030;2024-01-16T04:17:53;1.48;1.43;1.16;0.78;6.28;6.27;6.21;5.84;4.45;0.82
71906;SPS30;59781;52.090;5.030;2024-01-16T04:20:19;1.58;1.52;1.24;0.85;6.84;6.83;6.77;6.38;4.89;0.81
71906;SPS30;59781;52.090;5.030;2024-01-16T04:22:46;1.82;1.75;1.43;0.97;7.83;7.82;7.75;7.30;5.59;0.81
71906;SPS30;59781;52.090;5.030;2024-01-16T04:25:12;1.26;1.22;1.00;0.69;5.53;5.52;5.47;5.17;3.97;0.80
71906;SPS30;59781;52.090;5.030;2024-01-16T04:27:38;1.44;1.39;1.16;0.83;6.64;6.63;6.58;6.26;4.87;0.78
71906;SPS30;59781;52.090;5.030;2024-01-16T04:30:04;1.39;1.35;1.13;0.82;6.56;6.55;6.50;6.19;4.85;0.77
71906;SPS30;59781;52.090;5.030;2024-01-16T04:32:30;1.54;1.50;1.27;0.94;7.55;7.54;7.49;7.17;5.65;0.74
71906;SPS30;59781;52.090;5.030;2024-01-16T04:34:56;1.64;1.59;1.37;1.03;8.27;8.26;8.21;7.89;6.27;0.73
71906;SPS30;59781;52.090;5.030;2024-01-16T04:37:21;1.38;1.34;1.16;0.88;7.06;7.05;7.01;6.75;5.38;0.73
71906;SPS30;59781;52.090;5.030;2024-01-16T04:39:47;1.30;1.27;1.11;0.86;6.90;6.89;6.85;6.61;5.30;0.71
71906;SPS30;59781;52.090;5.030;2024-01-16T04:42:13;1.44;1.40;1.23;0.96;7.66;7.65;7.61;7.35;5.91;0.70
71906;SPS30;59781;52.090;5.030;2024-01-16T04:44:38;1.46;1.43;1.26;0.99;7.92;7.91;7.88;7.62;6.14;0.69
71906;SPS30;59781;52.090;5.030;2024-01-16T04:47:04;1.55;1.51;1.34;1.07;8.57;8.56;8.52;8.26;6.69;0.68
71906;SPS30;59781;52.090;5.030;2024-01-16T04:49:30;1.68;1.64;1.46;1.16;9.32;9.32;9.27;9.00;7.28;0.70
71906;SPS30;59781;52.090;5.030;2024-01-16T04:51:56;1.32;1.29;1.14;0.90;7.24;7.24;7.20;6.98;5.64;0.71
71906;SPS30;59781;52.090;5.030;2024-01-16T04:54:21;1.42;1.39;1.23;0.97;7.80;7.79;7.76;7.51;6.07;0.71
71906;SPS30;59781;52.090;5.030;2024-01-16T04:56:47;1.41;1.38;1.23;0.99;7.94;7.93;7.90;7.67;6.22;0.70
71906;SPS30;59781;52.090;5.030;2024-01-16T04:59:13;1.38;1.35;1.22;1.00;7.97;7.96;7.93;7.72;6.29;0.69
71906;SPS30;59781;52.090;5.030;2024-01-16T05:01:38;1.28;1.25;1.14;0.95;7.58;7.58;7.55;7.37;6.04;0.69
71906;SPS30;59781;52.090;5.030;2024-01-16T05:04:04;1.57;1.54;1.41;1.18;9.48;9.47;9.44;9.23;7.58;0.68
71906;SPS30;59781;52.090;5.030;2024-01-16T05:06:30;1.57;1.55;1.42;1.19;9.52;9.51;9.48;9.27;7.62;0.69
71906;SPS30;59781;52.090;5.030;2024-01-16T05:08:56;1.80;1.77;1.64;1.40;11.20;11.19;11.16;10.94;9.03;0.68
71906;SPS30;59781;52.090;5.030;2024-01-16T05:11:22;1.77;1.75;1.64;1.43;11.43;11.42;11.40;11.21;9.30;0.66
71906;SPS30;59781;52.090;5.030;2024-01-16T05:13:47;1.59;1.57;1.48;1.30;10.37;10.37;10.34;10.18;8.46;0.65
71906;SPS30;59781;52.090;5.030;2024-01-16T05:16:13;1.51;1.50;1.43;1.28;10.22;10.22;10.20;10.07;8.41;0.63
71906;SPS30;59781;52.090;5.030;2024-01-16T05:18:41;1.71;1.70;1.64;1.48;11.79;11.79;11.77;11.63;9.74;0.61
71906;SPS30;59781;52.090;5.030;2024-01-16T05:21:08;1.54;1.53;1.47;1.32;10.52;10.52;10.50;10.37;8.68;0.61
71906;SPS30;59781;52.090;5.030;2024-01-16T05:23:34;1.32;1.31;1.24;1.10;8.79;8.79;8.77;8.64;7.20;0.63
71906;SPS30;59781;52.090;5.030;2024-01-16T05:25:59;1.46;1.44;1.36;1.19;9.51;9.51;9.48;9.33;7.75;0.64
71906;SPS30;59781;52.090;5.030;2024-01-16T05:28:25;1.77;1.75;1.65;1.44;11.49;11.49;11.46;11.27;9.36;0.65
71906;SPS30;59781;52.090;5.030;2024-01-16T05:30:51;2.04;2.02;1.92;1.70;13.58;13.58;13.55;13.36;11.14;0.62
71906;SPS30;59781;52.090;5.030;2024-01-16T05:33:17;2.65;2.63;2.54;2.30;18.40;18.39;18.36;18.16;15.22;0.61
71906;SPS30;59781;52.090;5.030;2024-01-16T05:35:42;1.83;1.82;1.76;1.59;12.75;12.74;12.72;12.58;10.56;0.61
71906;SPS30;59781;52.090;5.030;2024-01-16T05:38:08;1.87;1.86;1.79;1.62;12.96;12.95;12.94;12.79;10.72;0.62
71906;SPS30;59781;52.090;5.030;2024-01-16T05:40:34;1.54;1.53;1.47;1.31;10.50;10.50;10.48;10.35;8.66;0.63
71906;SPS30;59781;52.090;5.030;2024-01-16T05:42:59;1.72;1.71;1.64;1.47;11.72;11.71;11.70;11.55;9.66;0.62
71906;SPS30;59781;52.090;5.030;2024-01-16T05:45:25;2.16;2.14;2.06;1.85;14.80;14.80;14.77;14.59;12.21;0.62
71906;SPS30;59781;52.090;5.030;2024-01-16T05:47:51;2.46;2.45;2.36;2.14;17.07;17.06;17.04;16.85;14.12;0.61
71906;SPS30;59781;52.090;5.030;2024-01-16T05:50:16;1.78;1.77;1.71;1.55;12.35;12.34;12.33;12.19;10.22;0.62
71906;SPS30;59781;52.090;5.030;2024-01-16T05:52:44;1.60;1.59;1.55;1.43;11.39;11.39;11.37;11.27;9.48;0.59
71906;SPS30;59781;52.090;5.030;2024-01-16T05:55:09;1.89;1.88;1.84;1.70;13.62;13.61;13.60;13.49;11.37;0.57
71906;SPS30;59781;52.090;5.030;2024-01-16T05:57:36;3.06;3.05;2.99;2.76;22.07;22.07;22.05;21.86;18.43;0.57
71906;SPS30;59781;52.090;5.030;2024-01-16T06:00:03;2.88;2.87;2.85;2.67;21.36;21.36;21.35;21.21;17.94;0.55
71906;SPS30;59781;52.090;5.030;2024-01-16T06:02:32;1.48;1.48;1.46;1.37;10.91;10.91;10.90;10.83;9.15;0.56
71906;SPS30;59781;52.090;5.030;2024-01-16T06:05:03;1.62;1.62;1.61;1.50;12.00;12.00;12.00;11.92;10.07;0.56
71906;SPS30;59781;52.090;5.030;2024-01-16T06:07:29;2.33;2.32;2.32;2.18;17.42;17.42;17.41;17.31;14.66;0.55
71906;SPS30;59781;52.090;5.030;2024-01-16T06:09:55;2.31;2.30;2.29;2.16;17.23;17.23;17.22;17.12;14.49;0.55
71906;SPS30;59781;52.090;5.030;2024-01-16T06:12:20;2.35;2.35;2.35;2.22;17.76;17.75;17.75;17.65;14.96;0.54
71906;SPS30;59781;52.090;5.030;2024-01-16T06:14:47;2.02;2.02;2.02;1.91;15.22;15.22;15.22;15.14;12.83;0.52
71906;SPS30;59781;52.090;5.030;2024-01-16T06:17:12;1.53;1.53;1.53;1.45;11.57;11.57;11.57;11.51;9.75;0.53
71906;SPS30;59781;52.090;5.030;2024-01-16T06:19:38;2.17;2.17;2.17;2.05;16.39;16.38;16.38;16.29;13.81;0.54
71906;SPS30;59781;52.090;5.030;2024-01-16T06:22:04;2.23;2.23;2.22;2.09;16.69;16.68;16.68;16.58;14.04;0.56
71906;SPS30;59781;52.090;5.030;2024-01-16T06:24:30;2.25;2.25;2.25;2.12;16.92;16.92;16.91;16.82;14.24;0.56
71906;SPS30;59781;52.090;5.030;2024-01-16T06:27:02;2.32;2.32;2.31;2.18;17.40;17.40;17.39;17.29;14.64;0.56
71906;SPS30;59781;52.090;5.030;2024-01-16T06:29:30;2.12;2.12;2.11;1.99;15.93;15.92;15.92;15.83;13.41;0.57
71906;SPS30;59781;52.090;5.030;2024-01-16T06:31:56;2.20;2.20;2.20;2.08;16.58;16.58;16.57;16.48;13.96;0.56
71906;SPS30;59781;52.090;5.030;2024-01-16T06:34:22;2.55;2.54;2.54;2.40;19.15;19.15;19.14;19.04;16.13;0.56
71906;SPS30;59781;52.090;5.030;2024-01-16T06:36:48;2.43;2.43;2.43;2.30;18.33;18.32;18.32;18.22;15.45;0.54
71906;SPS30;59781;52.090;5.030;2024-01-16T06:39:13;2.32;2.32;2.32;2.19;17.49;17.49;17.48;17.40;14.74;0.54
71906;SPS30;59781;52.090;5.030;2024-01-16T06:41:42;2.64;2.64;2.64;2.49;19.88;19.88;19.87;19.76;16.74;0.56
71906;SPS30;59781;52.090;5.030;2024-01-16T06:44:08;2.78;2.77;2.76;2.60;20.75;20.74;20.73;20.61;17.44;0.57
71906;SPS30;59781;52.090;5.030;2024-01-16T06:46:33;3.00;3.00;2.98;2.79;22.32;22.31;22.30;22.17;18.75;0.58
71906;SPS30;59781;52.090;5.030;2024-01-16T06:49:00;3.29;3.28;3.26;3.05;24.34;24.33;24.32;24.16;20.42;0.59
71906;SPS30;59781;52.090;5.030;2024-01-16T06:51:26;5.82;5.80;5.71;5.29;42.29;42.28;42.25;41.92;35.36;0.62
71906;SPS30;59781;52.090;5.030;2024-01-16T06:53:52;4.55;4.53;4.45;4.12;32.93;32.92;32.89;32.63;27.51;0.61
71906;SPS30;59781;52.090;5.030;2024-01-16T06:56:18;4.06;4.05;3.99;3.71;29.66;29.65;29.63;29.41;24.82;0.60
71906;SPS30;59781;52.090;5.030;2024-01-16T06:58:43;3.79;3.78;3.75;3.50;27.93;27.93;27.91;27.72;23.42;0.58
71906;SPS30;59781;52.090;5.030;2024-01-16T07:01:09;3.59;3.59;3.56;3.34;26.67;26.66;26.65;26.48;22.39;0.58
71906;SPS30;59781;52.090;5.030;2024-01-16T07:03:35;3.77;3.76;3.72;3.48;27.81;27.80;27.78;27.60;23.33;0.59
71906;SPS30;59781;52.090;5.030;2024-01-16T07:06:01;4.06;4.05;4.02;3.77;30.07;30.07;30.05;29.86;25.25;0.58
71906;SPS30;59781;52.090;5.030;2024-01-16T07:08:27;4.34;4.34;4.34;4.10;32.77;32.76;32.75;32.58;27.61;0.55
71906;SPS30;59781;52.090;5.030;2024-01-16T07:10:53;5.05;5.05;5.04;4.75;37.92;37.91;37.89;37.68;31.91;0.57
71906;SPS30;59781;52.090;5.030;2024-01-16T07:13:19;4.34;4.34;4.33;4.08;32.59;32.58;32.57;32.38;27.42;0.57
71906;SPS30;59781;52.090;5.030;2024-01-16T07:15:45;4.13;4.12;4.11;3.88;30.98;30.97;30.96;30.79;26.08;0.57
71906;SPS30;59781;52.090;5.030;2024-01-16T07:18:10;3.94;3.94;3.93;3.71;29.64;29.64;29.62;29.46;24.96;0.57
71906;SPS30;59781;52.090;5.030;2024-01-16T07:20:36;4.31;4.30;4.29;4.04;32.28;32.27;32.26;32.08;27.16;0.58
71906;SPS30;59781;52.090;5.030;2024-01-16T07:23:02;4.30;4.30;4.30;4.06;32.46;32.45;32.44;32.27;27.35;0.54
71906;SPS30;59781;52.090;5.030;2024-01-16T07:25:29;4.54;4.54;4.54;4.29;34.25;34.24;34.23;34.06;28.86;0.54
71906;SPS30;59781;52.090;5.030;2024-01-16T07:27:55;4.03;4.03;4.03;3.81;30.41;30.40;30.40;30.24;25.63;0.54
71906;SPS30;59781;52.090;5.030;2024-01-16T07:30:20;4.17;4.17;4.17;3.95;31.50;31.50;31.49;31.33;26.55;0.54
71906;SPS30;59781;52.090;5.030;2024-01-16T07:32:46;4.41;4.41;4.39;4.12;32.94;32.93;32.92;32.72;27.69;0.56
71906;SPS30;59781;52.090;5.030;2024-01-16T07:35:12;4.12;4.11;4.09;3.83;30.58;30.57;30.56;30.37;25.68;0.57
71906;SPS30;59781;52.090;5.030;2024-01-16T07:37:38;3.61;3.61;3.60;3.39;27.08;27.07;27.06;26.91;22.78;0.58
71906;SPS30;59781;52.090;5.030;2024-01-16T07:40:04;3.53;3.53;3.51;3.30;26.36;26.36;26.35;26.19;22.16;0.59
71906;SPS30;59781;52.090;5.030;2024-01-16T07:42:34;3.19;3.19;3.18;2.99;23.90;23.89;23.88;23.74;20.10;0.57
71906;SPS30;59781;52.090;5.030;2024-01-16T07:45:01;2.76;2.75;2.75;2.59;20.68;20.68;20.67;20.56;17.41;0.58
71906;SPS30;59781;52.090;5.030;2024-01-16T07:47:30;2.87;2.87;2.87;2.71;21.63;21.63;21.62;21.51;18.23;0.55
71906;SPS30;59781;52.090;5.030;2024-01-16T07:49:57;3.00;3.00;2.99;2.82;22.51;22.50;22.50;22.37;18.94;0.57
71906;SPS30;59781;52.090;5.030;2024-01-16T07:52:23;2.91;2.91;2.88;2.69;21.52;21.52;21.50;21.36;18.06;0.58
71906;SPS30;59781;52.090;5.030;2024-01-16T07:54:49;2.98;2.98;2.96;2.77;22.09;22.08;22.07;21.93;18.54;0.58
71906;SPS30;59781;52.090;5.030;2024-01-16T07:57:14;3.07;3.06;3.00;2.76;22.08;22.07;22.06;21.87;18.42;0.60
71906;SPS30;59781;52.090;5.030;2024-01-16T07:59:40;2.93;2.92;2.88;2.67;21.31;21.31;21.29;21.12;17.82;0.58
71906;SPS30;59781;52.090;5.030;2024-01-16T08:02:08;2.85;2.84;2.81;2.63;21.00;20.99;20.98;20.84;17.61;0.57
71906;SPS30;59781;52.090;5.030;2024-01-16T08:04:34;2.63;2.63;2.61;2.44;19.51;19.51;19.50;19.37;16.38;0.57
71906;SPS30;59781;52.090;5.030;2024-01-16T08:07:00;2.49;2.49;2.46;2.30;18.34;18.34;18.32;18.20;15.37;0.56
71906;SPS30;59781;52.090;5.030;2024-01-16T08:09:26;2.50;2.49;2.43;2.22;17.75;17.75;17.73;17.56;14.77;0.59
71906;SPS30;59781;52.090;5.030;2024-01-16T08:11:52;2.33;2.32;2.27;2.09;16.67;16.66;16.65;16.50;13.89;0.58
71906;SPS30;59781;52.090;5.030;2024-01-16T08:14:17;2.55;2.54;2.50;2.32;18.53;18.52;18.51;18.37;15.50;0.57
71906;SPS30;59781;52.090;5.030;2024-01-16T08:16:43;2.44;2.44;2.41;2.25;17.99;17.98;17.97;17.85;15.08;0.58
71906;SPS30;59781;52.090;5.030;2024-01-16T08:19:09;2.57;2.56;2.53;2.35;18.80;18.80;18.79;18.65;15.75;0.59
71906;SPS30;59781;52.090;5.030;2024-01-16T08:21:34;2.44;2.44;2.41;2.24;17.88;17.87;17.86;17.73;14.96;0.57
71906;SPS30;59781;52.090;5.030;2024-01-16T08:24:01;2.28;2.28;2.28;2.15;17.17;17.17;17.17;17.07;14.46;0.55
71906;SPS30;59781;52.090;5.030;2024-01-16T08:26:27;2.48;2.48;2.47;2.32;18.53;18.53;18.52;18.41;15.58;0.55
71906;SPS30;59781;52.090;5.030;2024-01-16T08:28:53;2.24;2.23;2.20;2.05;16.34;16.33;16.32;16.20;13.67;0.57
71906;SPS30;59781;52.090;5.030;2024-01-16T08:31:20;2.28;2.27;2.23;2.06;16.44;16.43;16.42;16.28;13.72;0.59
71906;SPS30;59781;52.090;5.030;2024-01-16T08:33:46;2.28;2.27;2.22;2.04;16.29;16.29;16.27;16.12;13.56;0.58
71906;SPS30;59781;52.090;5.030;2024-01-16T08:36:12;2.36;2.35;2.27;2.05;16.39;16.38;16.36;16.17;13.56;0.58
71906;SPS30;59781;52.090;5.030;2024-01-16T08:38:40;2.25;2.24;2.16;1.95;15.56;15.56;15.54;15.36;12.87;0.59
71906;SPS30;59781;52.090;5.030;2024-01-16T08:41:06;2.39;2.37;2.28;2.05;16.37;16.36;16.34;16.14;13.51;0.60
71906;SPS30;59781;52.090;5.030;2024-01-16T08:43:33;2.19;2.18;2.11;1.92;15.34;15.33;15.31;15.15;12.71;0.60
71906;SPS30;59781;52.090;5.030;2024-01-16T08:45:59;2.11;2.10;2.05;1.87;14.98;14.97;14.96;14.81;12.46;0.59
71906;SPS30;59781;52.090;5.030;2024-01-16T08:48:24;2.37;2.36;2.30;2.11;16.88;16.87;16.85;16.70;14.05;0.58
71906;SPS30;59781;52.090;5.030;2024-01-16T08:50:51;2.40;2.38;2.33;2.14;17.06;17.05;17.04;16.88;14.20;0.59
71906;SPS30;59781;52.090;5.030;2024-01-16T08:53:19;2.41;2.40;2.34;2.15;17.22;17.21;17.19;17.04;14.34;0.59
71906;SPS30;59781;52.090;5.030;2024-01-16T08:55:48;2.36;2.35;2.29;2.09;16.66;16.66;16.64;16.47;13.84;0.60
71906;SPS30;59781;52.090;5.030;2024-01-16T08:58:14;2.18;2.16;2.10;1.91;15.28;15.27;15.26;15.10;12.68;0.60
71906;SPS30;59781;52.090;5.030;2024-01-16T09:00:40;2.49;2.47;2.40;2.18;17.44;17.43;17.41;17.23;14.47;0.59
71906;SPS30;59781;52.090;5.030;2024-01-16T09:03:06;2.35;2.34;2.28;2.09;16.71;16.70;16.68;16.52;13.90;0.59
71906;SPS30;59781;52.090;5.030;2024-01-16T09:05:33;2.23;2.23;2.20;2.05;16.34;16.33;16.32;16.20;13.67;0.57
71906;SPS30;59781;52.090;5.030;2024-01-16T09:08:03;2.36;2.35;2.31;2.13;17.03;17.02;17.01;16.87;14.22;0.59
71906;SPS30;59781;52.090;5.030;2024-01-16T09:10:32;2.56;2.55;2.50;2.32;18.51;18.51;18.49;18.34;15.46;0.58
71906;SPS30;59781;52.090;5.030;2024-01-16T09:12:58;2.52;2.50;2.43;2.22;17.73;17.73;17.70;17.53;14.72;0.60
71906;SPS30;59781;52.090;5.030;2024-01-16T09:15:24;2.66;2.64;2.55;2.30;18.41;18.41;18.38;18.17;15.24;0.57
71906;SPS30;59781;52.090;5.030;2024-01-16T09:17:50;2.40;2.38;2.32;2.13;16.98;16.97;16.96;16.79;14.12;0.58
71906;SPS30;59781;52.090;5.030;2024-01-16T09:20:16;2.61;2.61;2.56;2.37;18.94;18.93;18.92;18.77;15.82;0.56
71906;SPS30;59781;52.090;5.030;2024-01-16T09:22:42;2.34;2.33;2.30;2.13;17.02;17.01;17.00;16.87;14.23;0.57